createdAt,value
2022-08-29T00:01:21.279Z,5.0
2022-08-29T00:06:27.481Z,4.0
2022-08-29T00:11:32.713Z,5.0
2022-08-29T00:16:39.009Z,5.0
2022-08-29T00:21:44.175Z,4.0
2022-08-29T00:26:50.389Z,3.0
2022-08-29T00:31:56.626Z,4.0
2022-08-29T00:37:02.812Z,4.0
2022-08-29T00:42:09.038Z,4.0
2022-08-29T00:47:15.244Z,5.0
2022-08-29T00:52:21.461Z,5.0
2022-08-29T00:57:27.678Z,4.0
2022-08-29T01:02:38.491Z,5.0
2022-08-29T01:07:40.828Z,5.0
2022-08-29T01:12:46.316Z,3.5
2022-08-29T01:17:52.521Z,4.0
2022-08-29T01:22:58.734Z,4.5
2022-08-29T01:28:04.949Z,4.0
2022-08-29T01:33:11.165Z,5.0
2022-08-29T01:38:17.364Z,5.0
2022-08-29T01:43:23.571Z,3.5
2022-08-29T01:48:29.777Z,5.0
2022-08-29T01:53:35.990Z,4.0
2022-08-29T01:58:42.192Z,6.0
2022-08-29T02:03:48.410Z,5.0
2022-08-29T02:08:53.641Z,4.0
2022-08-29T02:13:59.845Z,4.0
2022-08-29T02:19:06.062Z,6.0
2022-08-29T02:24:24.937Z,6.0
2022-08-29T02:29:18.472Z,5.0
2022-08-29T02:34:24.682Z,6.0
2022-08-29T02:44:37.098Z,4.0
2022-08-29T02:49:43.309Z,4.0
2022-08-29T02:54:49.527Z,6.0
2022-08-29T02:59:55.729Z,5.0
2022-08-29T03:05:01.941Z,4.0
2022-08-29T03:10:08.155Z,4.0
2022-08-29T03:15:14.349Z,6.0
2022-08-29T03:20:20.559Z,5.0
2022-08-29T03:25:26.767Z,5.0
2022-08-29T03:30:32.975Z,6.0
2022-08-29T03:35:39.242Z,4.0
2022-08-29T03:40:45.387Z,4.0
2022-08-29T03:45:51.595Z,7.0
2022-08-29T03:50:57.805Z,5.0
2022-08-29T03:56:04.020Z,5.0
2022-08-29T04:01:09.259Z,5.0
2022-08-29T04:06:15.457Z,4.0
2022-08-29T04:11:20.694Z,4.0
2022-08-29T04:16:30.463Z,5.0
2022-08-29T04:21:33.115Z,5.5
2022-08-29T04:26:39.328Z,6.0
2022-08-29T04:31:45.609Z,5.0
2022-08-29T04:36:51.737Z,4.0
2022-08-29T04:41:57.948Z,5.0
2022-08-29T04:47:04.159Z,6.0
2022-08-29T04:52:10.361Z,4.0
2022-08-29T04:57:16.573Z,5.0
2022-08-29T05:02:22.852Z,6.0
2022-08-29T05:07:28.985Z,6.0
2022-08-29T05:12:35.195Z,8.0
2022-08-29T05:17:41.406Z,6.0
2022-08-29T05:22:47.607Z,5.0
2022-08-29T05:27:53.816Z,7.0
2022-08-29T05:33:00.045Z,7.0
2022-08-29T05:38:14.759Z,5.0
2022-08-29T05:43:12.438Z,7.0
2022-08-29T05:48:18.649Z,7.0
2022-08-29T05:53:24.864Z,8.0
2022-08-29T05:58:30.090Z,7.0
2022-08-29T06:03:36.509Z,8.0
2022-08-29T06:08:41.537Z,8.0
2022-08-29T06:13:47.747Z,7.0
2022-08-29T06:18:53.959Z,10.0
2022-08-29T06:24:00.161Z,7.0
2022-08-29T06:29:06.368Z,7.0
2022-08-29T06:34:12.584Z,9.0
2022-08-29T06:39:18.799Z,8.0
2022-08-29T06:44:25.021Z,7.0
2022-08-29T06:49:31.221Z,7.0
2022-08-29T06:54:37.439Z,8.5
2022-08-29T06:59:43.657Z,7.0
2022-08-29T07:04:49.860Z,8.0
2022-08-29T07:09:56.081Z,10.0
2022-08-29T07:15:02.302Z,8.0
2022-08-29T07:20:08.497Z,9.0
2022-08-29T07:25:14.733Z,9.0
2022-08-29T07:30:20.920Z,8.5
2022-08-29T07:35:30.324Z,8.0
2022-08-29T07:40:33.375Z,10.0
2022-08-29T07:45:39.600Z,8.0
2022-08-29T07:50:45.765Z,9.0
2022-08-29T07:55:50.985Z,7.0
2022-08-29T08:00:57.193Z,8.0
2022-08-29T08:06:03.936Z,6.0
2022-08-29T08:11:08.645Z,7.0
2022-08-29T08:16:14.939Z,7.0
2022-08-29T08:21:21.051Z,5.0
2022-08-29T08:26:27.261Z,5.0
2022-08-29T08:31:33.506Z,5.0
2022-08-29T08:36:41.369Z,4.0
2022-08-29T08:41:45.887Z,4.0
2022-08-29T08:46:52.095Z,5.0
2022-08-29T08:51:58.312Z,4.0
2022-08-29T08:57:04.516Z,4.0
2022-08-29T09:02:10.790Z,3.0
2022-08-29T09:07:16.943Z,4.5
2022-08-29T09:12:23.154Z,4.0
2022-08-29T09:17:29.352Z,4.0
2022-08-29T09:22:35.559Z,4.0
2022-08-29T09:27:41.773Z,3.0
2022-08-29T09:32:47.981Z,5.5
2022-08-29T09:37:54.187Z,6.0
2022-08-29T09:43:00.394Z,5.0
2022-08-29T09:48:06.605Z,4.0
2022-08-29T09:53:25.108Z,5.0
2022-08-29T10:03:24.261Z,4.0
2022-08-29T10:08:30.478Z,4.0
2022-08-29T10:13:35.703Z,4.0
2022-08-29T10:18:41.911Z,4.0
2022-08-29T10:23:48.120Z,4.0
2022-08-29T10:28:54.367Z,4.5
2022-08-29T10:34:00.545Z,5.0
2022-08-29T10:39:06.754Z,5.0
2022-08-29T10:44:13.037Z,4.0
2022-08-29T10:49:19.170Z,3.0
2022-08-29T10:54:25.381Z,4.0
2022-08-29T10:59:31.592Z,5.0
2022-08-29T11:04:37.797Z,4.0
2022-08-29T11:09:44.009Z,4.0
2022-08-29T11:14:50.210Z,4.5
2022-08-29T11:19:56.426Z,4.0
2022-08-29T11:25:02.633Z,4.0
2022-08-29T11:30:08.847Z,5.0
2022-08-29T11:35:15.081Z,4.0
2022-08-29T11:40:47.365Z,4.0
2022-08-29T11:45:35.448Z,4.0
2022-08-29T11:50:33.686Z,5.0
2022-08-29T11:55:39.890Z,4.0
2022-08-29T12:00:45.127Z,5.0
2022-08-29T12:05:51.332Z,4.0
2022-08-29T12:10:56.570Z,4.0
2022-08-29T12:16:02.905Z,4.0
2022-08-29T12:21:09.017Z,4.0
2022-08-29T12:26:22.514Z,5.0
2022-08-29T12:31:21.493Z,4.0
2022-08-29T12:36:27.622Z,4.0
2022-08-29T12:41:33.825Z,3.0
2022-08-29T12:46:40.094Z,4.0
2022-08-29T12:51:46.250Z,4.0
2022-08-29T12:56:52.457Z,5.0
2022-08-29T13:01:58.697Z,3.5
2022-08-29T13:07:04.877Z,3.0
2022-08-29T13:12:11.084Z,4.0
2022-08-29T13:17:17.292Z,4.0
2022-08-29T13:22:23.501Z,3.0
2022-08-29T13:27:29.711Z,3.0
2022-08-29T13:32:35.928Z,2.0
2022-08-29T13:37:42.133Z,3.0
2022-08-29T13:42:48.347Z,3.0
2022-08-29T13:47:54.555Z,3.0
2022-08-29T13:53:00.761Z,5.0
2022-08-29T13:58:06.002Z,3.5
2022-08-29T14:03:12.362Z,4.0
2022-08-29T14:08:17.582Z,3.0
2022-08-29T14:13:23.660Z,3.0
2022-08-29T14:18:32.680Z,4.0
2022-08-29T14:23:36.092Z,4.0
2022-08-29T14:28:46.108Z,3.0
2022-08-29T14:33:51.673Z,3.0
2022-08-29T14:38:54.721Z,4.0
2022-08-29T14:44:00.937Z,4.0
2022-08-29T14:49:07.148Z,3.0
2022-08-29T14:54:13.362Z,4.0
2022-08-29T14:59:19.585Z,5.0
2022-08-29T15:04:37.092Z,4.0
2022-08-29T15:09:32.000Z,3.0
2022-08-29T15:14:38.214Z,4.0
2022-08-29T15:20:31.889Z,6.0
2022-08-29T15:24:50.664Z,5.0
2022-08-29T15:29:56.869Z,4.0
2022-08-29T15:35:02.108Z,4.0
2022-08-29T15:40:12.811Z,5.0
2022-08-29T15:45:14.537Z,3.0
2022-08-29T15:50:20.755Z,4.0
2022-08-29T15:55:26.006Z,3.0
2022-08-29T16:00:32.214Z,3.0
2022-08-29T16:05:37.463Z,4.0
2022-08-29T16:10:43.679Z,3.0
2022-08-29T16:15:49.975Z,4.0
2022-08-29T16:20:56.781Z,3.0
2022-08-29T16:26:02.586Z,4.0
2022-08-29T16:31:08.862Z,3.0
2022-08-29T16:36:14.997Z,3.0
2022-08-29T16:41:21.214Z,4.5
2022-08-29T16:46:27.487Z,3.0
2022-08-29T16:51:33.642Z,3.0
2022-08-29T16:56:39.937Z,3.0
2022-08-29T17:01:46.203Z,2.0
2022-08-29T17:06:52.401Z,4.0
2022-08-29T17:11:59.968Z,3.0
2022-08-29T17:17:04.871Z,4.0
2022-08-29T17:22:10.960Z,3.0
2022-08-29T17:27:21.266Z,3.0
2022-08-29T17:32:23.392Z,3.0
2022-08-29T17:37:29.609Z,3.0
2022-08-29T17:42:35.822Z,5.0
2022-08-29T17:47:42.276Z,3.0
2022-08-29T17:52:47.514Z,4.0
2022-08-29T17:57:53.727Z,4.0
2022-08-29T18:03:00.107Z,4.0
2022-08-29T18:08:06.148Z,3.0
2022-08-29T18:13:12.360Z,3.0
2022-08-29T18:18:18.722Z,4.0
2022-08-29T18:23:24.777Z,4.5
2022-08-29T18:28:30.990Z,4.5
2022-08-29T18:33:57.352Z,5.0
2022-08-29T18:38:43.408Z,4.0
2022-08-29T18:43:49.631Z,12.0
2022-08-29T18:48:55.825Z,3.0
2022-08-29T18:54:02.040Z,4.0
2022-08-29T18:59:08.240Z,3.0
2022-08-29T19:04:14.455Z,4.0
2022-08-29T19:09:20.656Z,5.0
2022-08-29T19:14:26.867Z,5.0
2022-08-29T19:19:33.079Z,5.5
2022-08-29T19:24:39.287Z,5.0
2022-08-29T19:29:45.495Z,6.0
2022-08-29T19:34:51.698Z,9.0
2022-08-29T19:39:57.000Z,8.0
2022-08-29T19:45:03.369Z,5.0
2022-08-29T19:50:08.387Z,5.0
2022-08-29T19:55:14.593Z,8.5
2022-08-29T20:00:19.831Z,7.0
2022-08-29T20:05:26.039Z,7.0
2022-08-29T20:10:32.248Z,8.0
2022-08-29T20:15:38.462Z,9.0
2022-08-29T20:20:44.661Z,7.0
2022-08-29T20:25:50.879Z,6.0
2022-08-29T20:30:57.083Z,8.0
2022-08-29T20:36:03.295Z,6.0
2022-08-29T20:41:09.501Z,5.0
2022-08-29T20:46:15.737Z,6.0
2022-08-29T20:51:21.914Z,4.0
2022-08-29T20:56:28.121Z,6.0
2022-08-29T21:01:34.417Z,5.0
2022-08-29T21:06:40.541Z,6.0
2022-08-29T21:11:46.751Z,4.0
2022-08-29T21:16:52.958Z,6.0
2022-08-29T21:21:59.162Z,5.0
2022-08-29T21:27:05.372Z,6.0
2022-08-29T21:32:11.577Z,5.5
2022-08-29T21:37:17.789Z,7.0
2022-08-29T21:42:23.997Z,6.0
2022-08-29T21:47:29.233Z,6.0
2022-08-29T21:52:35.444Z,7.0
2022-08-29T21:57:40.685Z,5.0
2022-08-29T22:02:46.940Z,6.0
2022-08-29T22:07:53.096Z,7.0
2022-08-29T22:12:59.309Z,7.0
2022-08-29T22:18:05.518Z,6.0
2022-08-29T22:23:11.725Z,7.0
2022-08-29T22:28:17.941Z,5.0
2022-08-29T22:33:24.144Z,6.0
2022-08-29T22:38:30.357Z,6.0
2022-08-29T22:43:36.557Z,6.0
2022-08-29T22:48:42.767Z,4.0
2022-08-29T22:53:48.984Z,6.0
2022-08-29T22:58:55.183Z,5.0
2022-08-29T23:04:01.397Z,5.0
2022-08-29T23:09:07.598Z,6.0
2022-08-29T23:14:13.806Z,5.0
2022-08-29T23:19:20.022Z,6.0
2022-08-29T23:24:26.238Z,6.0
2022-08-29T23:29:32.437Z,7.0
2022-08-29T23:34:38.639Z,7.0
2022-08-29T23:39:44.855Z,5.0
2022-08-29T23:44:50.089Z,7.0
2022-08-29T23:49:56.296Z,5.0
2022-08-29T23:55:02.503Z,7.0
